MHTG/TGU METAR and TAF weather

Enter ICAO airport designator
Station Type Date Time Source
MHTG METAR 2020/06/03 15:00 UTC NOAA

MHTG 031500Z 17004KT 8000 FEW025 SCT080 23/23 Q1017 A3003 RERA


Station Type Date Time Source
MHTG Decoded METAR 2020/06/03 15:00 UTC NOAA

Tegucigalpa, Honduras (MHTG) 14-03N 087-13W 1007M
Jun 03, 2020 - 11:00 AM EDT / 2020.06.03 1500 UTC
Wind: from the S (170 degrees) at 5 MPH (4 KT):0
Visibility: 4 mile(s):0
Sky conditions: partly cloudy
Temperature: 73 F (23 C)
Dew Point: 73 F (23 C)
Relative Humidity: 100%
Pressure (altimeter): 30.03 in. Hg (1016 hPa)
ob: MHTG 031500Z 17004KT 8000 FEW025 SCT080 23/23 Q1017 A3003 RERA
cycle: 15

Station Type Date Time Source
MHTG TAF 2020/06/03 18:44 UTC NOAA

TAF MHTG 031510Z 0318/0418 19007KT 7000 VCSH SCT030TCU FEW032CB TX26/0319Z TN18/0412Z
TEMPO 0320/0400 5000 -TSRA SCT032CB SCT080
BECMG 0400/0402 8000 VCSH FEW015 SCT026 BKN080
BECMG 0403/0405 9999 NSW PROB30 0413/0418 7000 VCSH FEW008 BKN024

Example: see airport list